sensor_id;sensor_type;location;lat;lon;timestamp;P1;durP1;ratioP1;P2;durP2;ratioP2
55003;SDS011;40900;52.710;6.438;2022-09-16T00:00:40;6.72;;;1.27;;
55003;SDS011;40900;52.710;6.438;2022-09-16T00:03:07;5.10;;;1.27;;
55003;SDS011;40900;52.710;6.438;2022-09-16T00:05:33;4.07;;;1.10;;
55003;SDS011;40900;52.710;6.438;2022-09-16T00:08:04;10.45;;;1.15;;
55003;SDS011;40900;52.710;6.438;2022-09-16T00:10:30;6.72;;;1.27;;
55003;SDS011;40900;52.710;6.438;2022-09-16T00:12:56;7.78;;;1.45;;
55003;SDS011;40900;52.710;6.438;2022-09-16T00:15:22;5.40;;;1.40;;
55003;SDS011;40900;52.710;6.438;2022-09-16T00:17:48;5.82;;;1.98;;
55003;SDS011;40900;52.710;6.438;2022-09-16T00:20:13;5.60;;;1.83;;
55003;SDS011;40900;52.710;6.438;2022-09-16T00:22:39;5.45;;;1.27;;
55003;SDS011;40900;52.710;6.438;2022-09-16T00:25:05;3.55;;;1.13;;
55003;SDS011;40900;52.710;6.438;2022-09-16T00:27:31;4.18;;;0.98;;
55003;SDS011;40900;52.710;6.438;2022-09-16T00:29:56;4.32;;;1.00;;
55003;SDS011;40900;52.710;6.438;2022-09-16T00:32:22;5.65;;;1.77;;
55003;SDS011;40900;52.710;6.438;2022-09-16T00:34:49;5.60;;;1.10;;
55003;SDS011;40900;52.710;6.438;2022-09-16T00:37:15;9.80;;;1.35;;
55003;SDS011;40900;52.710;6.438;2022-09-16T00:39:41;6.35;;;1.50;;
55003;SDS011;40900;52.710;6.438;2022-09-16T00:42:08;4.80;;;1.10;;
55003;SDS011;40900;52.710;6.438;2022-09-16T00:47:30;7.20;;;1.25;;
55003;SDS011;40900;52.710;6.438;2022-09-16T00:50:02;6.45;;;1.88;;
55003;SDS011;40900;52.710;6.438;2022-09-16T00:52:34;4.68;;;1.20;;
55003;SDS011;40900;52.710;6.438;2022-09-16T00:55:00;5.35;;;1.15;;
55003;SDS011;40900;52.710;6.438;2022-09-16T00:57:30;6.30;;;1.10;;
55003;SDS011;40900;52.710;6.438;2022-09-16T00:59:56;4.63;;;1.00;;
55003;SDS011;40900;52.710;6.438;2022-09-16T01:02:23;7.20;;;1.40;;
55003;SDS011;40900;52.710;6.438;2022-09-16T01:05:02;8.02;;;1.40;;
55003;SDS011;40900;52.710;6.438;2022-09-16T01:10:10;4.38;;;1.23;;
55003;SDS011;40900;52.710;6.438;2022-09-16T01:12:44;6.47;;;1.15;;
55003;SDS011;40900;52.710;6.438;2022-09-16T01:15:13;8.93;;;1.50;;
55003;SDS011;40900;52.710;6.438;2022-09-16T01:23:10;7.55;;;1.25;;
55003;SDS011;40900;52.710;6.438;2022-09-16T01:25:47;5.85;;;1.25;;
55003;SDS011;40900;52.710;6.438;2022-09-16T01:28:31;4.43;;;1.20;;
55003;SDS011;40900;52.710;6.438;2022-09-16T01:40:03;6.03;;;1.38;;
55003;SDS011;40900;52.710;6.438;2022-09-16T01:42:52;5.25;;;1.40;;
55003;SDS011;40900;52.710;6.438;2022-09-16T01:54:17;4.85;;;1.33;;
55003;SDS011;40900;52.710;6.438;2022-09-16T01:56:59;5.53;;;1.38;;
55003;SDS011;40900;52.710;6.438;2022-09-16T01:59:40;4.05;;;1.20;;
55003;SDS011;40900;52.710;6.438;2022-09-16T02:02:19;5.80;;;1.40;;
55003;SDS011;40900;52.710;6.438;2022-09-16T02:04:54;3.80;;;1.00;;
55003;SDS011;40900;52.710;6.438;2022-09-16T02:07:24;5.25;;;1.20;;
55003;SDS011;40900;52.710;6.438;2022-09-16T02:09:56;7.53;;;1.70;;
55003;SDS011;40900;52.710;6.438;2022-09-16T02:12:26;5.88;;;1.90;;
55003;SDS011;40900;52.710;6.438;2022-09-16T02:14:59;6.50;;;1.10;;
55003;SDS011;40900;52.710;6.438;2022-09-16T02:17:30;5.45;;;1.75;;
55003;SDS011;40900;52.710;6.438;2022-09-16T02:20:08;3.25;;;1.17;;
55003;SDS011;40900;52.710;6.438;2022-09-16T02:22:42;5.57;;;1.45;;
55003;SDS011;40900;52.710;6.438;2022-09-16T02:25:10;7.78;;;1.40;;
55003;SDS011;40900;52.710;6.438;2022-09-16T02:27:38;8.32;;;1.30;;
55003;SDS011;40900;52.710;6.438;2022-09-16T02:30:24;6.80;;;1.73;;
55003;SDS011;40900;52.710;6.438;2022-09-16T02:32:58;5.53;;;1.20;;
55003;SDS011;40900;52.710;6.438;2022-09-16T02:35:28;6.43;;;1.10;;
55003;SDS011;40900;52.710;6.438;2022-09-16T02:38:00;8.38;;;2.25;;
55003;SDS011;40900;52.710;6.438;2022-09-16T02:40:35;5.82;;;1.35;;
55003;SDS011;40900;52.710;6.438;2022-09-16T02:43:06;6.50;;;1.20;;
55003;SDS011;40900;52.710;6.438;2022-09-16T02:45:35;11.88;;;1.73;;
55003;SDS011;40900;52.710;6.438;2022-09-16T02:48:05;6.60;;;1.40;;
55003;SDS011;40900;52.710;6.438;2022-09-16T02:50:42;6.65;;;1.35;;
55003;SDS011;40900;52.710;6.438;2022-09-16T02:56:21;4.57;;;1.50;;
55003;SDS011;40900;52.710;6.438;2022-09-16T02:59:00;5.13;;;1.30;;
55003;SDS011;40900;52.710;6.438;2022-09-16T03:01:29;5.38;;;1.40;;
55003;SDS011;40900;52.710;6.438;2022-09-16T03:04:00;5.55;;;1.02;;
55003;SDS011;40900;52.710;6.438;2022-09-16T03:06:27;4.20;;;1.30;;
55003;SDS011;40900;52.710;6.438;2022-09-16T03:08:53;4.47;;;1.10;;
55003;SDS011;40900;52.710;6.438;2022-09-16T03:11:23;4.65;;;1.40;;
55003;SDS011;40900;52.710;6.438;2022-09-16T03:16:40;6.55;;;1.50;;
55003;SDS011;40900;52.710;6.438;2022-09-16T03:22:01;5.57;;;1.23;;
55003;SDS011;40900;52.710;6.438;2022-09-16T03:24:44;5.68;;;1.40;;
55003;SDS011;40900;52.710;6.438;2022-09-16T03:27:24;3.88;;;1.35;;
55003;SDS011;40900;52.710;6.438;2022-09-16T03:30:13;5.72;;;1.50;;
55003;SDS011;40900;52.710;6.438;2022-09-16T03:32:47;7.18;;;1.30;;
55003;SDS011;40900;52.710;6.438;2022-09-16T03:35:22;6.30;;;1.55;;
55003;SDS011;40900;52.710;6.438;2022-09-16T03:38:01;4.35;;;1.63;;
55003;SDS011;40900;52.710;6.438;2022-09-16T03:40:28;5.57;;;1.20;;
55003;SDS011;40900;52.710;6.438;2022-09-16T03:42:55;6.13;;;1.40;;
55003;SDS011;40900;52.710;6.438;2022-09-16T03:45:22;5.82;;;1.42;;
55003;SDS011;40900;52.710;6.438;2022-09-16T03:47:48;6.75;;;1.40;;
55003;SDS011;40900;52.710;6.438;2022-09-16T03:50:15;6.72;;;1.60;;
55003;SDS011;40900;52.710;6.438;2022-09-16T03:52:41;9.50;;;2.05;;
55003;SDS011;40900;52.710;6.438;2022-09-16T03:55:07;7.25;;;1.88;;
55003;SDS011;40900;52.710;6.438;2022-09-16T03:57:34;6.32;;;1.60;;
55003;SDS011;40900;52.710;6.438;2022-09-16T04:00:00;5.18;;;1.63;;
55003;SDS011;40900;52.710;6.438;2022-09-16T04:02:27;6.15;;;1.88;;
55003;SDS011;40900;52.710;6.438;2022-09-16T04:04:52;5.63;;;1.77;;
55003;SDS011;40900;52.710;6.438;2022-09-16T04:07:18;7.68;;;1.88;;
55003;SDS011;40900;52.710;6.438;2022-09-16T04:09:44;5.72;;;1.98;;
55003;SDS011;40900;52.710;6.438;2022-09-16T04:12:10;4.85;;;2.00;;
55003;SDS011;40900;52.710;6.438;2022-09-16T04:14:35;9.20;;;2.00;;
55003;SDS011;40900;52.710;6.438;2022-09-16T04:17:01;7.65;;;2.10;;
55003;SDS011;40900;52.710;6.438;2022-09-16T04:19:27;7.28;;;1.88;;
55003;SDS011;40900;52.710;6.438;2022-09-16T04:21:53;6.65;;;2.25;;
55003;SDS011;40900;52.710;6.438;2022-09-16T04:24:19;8.10;;;2.47;;
55003;SDS011;40900;52.710;6.438;2022-09-16T04:26:44;6.72;;;2.33;;
55003;SDS011;40900;52.710;6.438;2022-09-16T04:29:10;10.40;;;2.50;;
55003;SDS011;40900;52.710;6.438;2022-09-16T04:31:36;5.78;;;1.90;;
55003;SDS011;40900;52.710;6.438;2022-09-16T04:34:02;5.78;;;2.15;;
55003;SDS011;40900;52.710;6.438;2022-09-16T04:36:29;6.15;;;1.88;;
55003;SDS011;40900;52.710;6.438;2022-09-16T04:38:54;6.03;;;1.92;;
55003;SDS011;40900;52.710;6.438;2022-09-16T04:41:21;6.15;;;2.13;;
55003;SDS011;40900;52.710;6.438;2022-09-16T04:43:52;7.05;;;2.53;;
55003;SDS011;40900;52.710;6.438;2022-09-16T04:46:26;6.22;;;1.80;;
55003;SDS011;40900;52.710;6.438;2022-09-16T04:48:54;5.47;;;1.83;;
55003;SDS011;40900;52.710;6.438;2022-09-16T04:51:20;7.90;;;2.30;;
55003;SDS011;40900;52.710;6.438;2022-09-16T04:53:47;6.78;;;2.00;;
55003;SDS011;40900;52.710;6.438;2022-09-16T04:56:20;7.47;;;1.80;;
55003;SDS011;40900;52.710;6.438;2022-09-16T04:58:49;6.82;;;1.80;;
55003;SDS011;40900;52.710;6.438;2022-09-16T05:01:21;7.55;;;2.05;;
55003;SDS011;40900;52.710;6.438;2022-09-16T05:03:50;9.18;;;1.95;;
55003;SDS011;40900;52.710;6.438;2022-09-16T05:06:18;7.60;;;1.73;;
55003;SDS011;40900;52.710;6.438;2022-09-16T05:08:47;8.13;;;1.65;;
55003;SDS011;40900;52.710;6.438;2022-09-16T05:11:14;7.75;;;1.77;;
55003;SDS011;40900;52.710;6.438;2022-09-16T05:13:41;4.78;;;1.70;;
55003;SDS011;40900;52.710;6.438;2022-09-16T05:16:08;5.45;;;1.40;;
55003;SDS011;40900;52.710;6.438;2022-09-16T05:18:39;6.60;;;1.65;;
55003;SDS011;40900;52.710;6.438;2022-09-16T05:21:07;6.18;;;1.27;;
55003;SDS011;40900;52.710;6.438;2022-09-16T05:23:35;8.77;;;1.83;;
55003;SDS011;40900;52.710;6.438;2022-09-16T05:26:05;10.02;;;1.75;;
55003;SDS011;40900;52.710;6.438;2022-09-16T05:28:33;7.03;;;1.52;;
55003;SDS011;40900;52.710;6.438;2022-09-16T05:33:40;7.65;;;2.08;;
55003;SDS011;40900;52.710;6.438;2022-09-16T05:36:17;7.70;;;1.85;;
55003;SDS011;40900;52.710;6.438;2022-09-16T05:38:43;6.43;;;1.80;;
55003;SDS011;40900;52.710;6.438;2022-09-16T05:41:09;9.63;;;1.92;;
55003;SDS011;40900;52.710;6.438;2022-09-16T05:43:36;8.35;;;1.80;;
55003;SDS011;40900;52.710;6.438;2022-09-16T05:46:02;9.38;;;1.67;;
55003;SDS011;40900;52.710;6.438;2022-09-16T05:48:30;10.13;;;2.08;;
55003;SDS011;40900;52.710;6.438;2022-09-16T05:51:05;10.10;;;1.92;;
55003;SDS011;40900;52.710;6.438;2022-09-16T05:56:04;10.80;;;1.60;;
55003;SDS011;40900;52.710;6.438;2022-09-16T05:58:33;11.15;;;1.48;;
55003;SDS011;40900;52.710;6.438;2022-09-16T06:03:30;8.68;;;1.73;;
55003;SDS011;40900;52.710;6.438;2022-09-16T06:06:00;7.97;;;1.60;;
55003;SDS011;40900;52.710;6.438;2022-09-16T06:08:28;9.32;;;1.90;;
55003;SDS011;40900;52.710;6.438;2022-09-16T06:10:55;9.77;;;1.95;;
55003;SDS011;40900;52.710;6.438;2022-09-16T06:13:21;9.80;;;1.73;;
55003;SDS011;40900;52.710;6.438;2022-09-16T06:15:50;9.52;;;1.70;;
55003;SDS011;40900;52.710;6.438;2022-09-16T06:18:19;8.23;;;1.75;;
55003;SDS011;40900;52.710;6.438;2022-09-16T06:20:45;8.88;;;1.63;;
55003;SDS011;40900;52.710;6.438;2022-09-16T06:23:11;8.45;;;1.60;;
55003;SDS011;40900;52.710;6.438;2022-09-16T06:25:37;9.13;;;1.95;;
55003;SDS011;40900;52.710;6.438;2022-09-16T06:28:04;8.73;;;1.90;;
55003;SDS011;40900;52.710;6.438;2022-09-16T06:30:32;12.23;;;2.20;;
55003;SDS011;40900;52.710;6.438;2022-09-16T06:32:59;7.00;;;1.67;;
55003;SDS011;40900;52.710;6.438;2022-09-16T06:35:25;8.25;;;1.52;;
55003;SDS011;40900;52.710;6.438;2022-09-16T06:37:53;8.15;;;1.70;;
55003;SDS011;40900;52.710;6.438;2022-09-16T06:40:19;10.15;;;1.60;;
55003;SDS011;40900;52.710;6.438;2022-09-16T06:42:44;9.73;;;2.08;;
55003;SDS011;40900;52.710;6.438;2022-09-16T06:45:10;15.23;;;2.30;;
55003;SDS011;40900;52.710;6.438;2022-09-16T06:47:36;7.75;;;1.45;;
55003;SDS011;40900;52.710;6.438;2022-09-16T06:50:02;7.80;;;1.95;;
55003;SDS011;40900;52.710;6.438;2022-09-16T06:52:29;8.93;;;1.80;;
55003;SDS011;40900;52.710;6.438;2022-09-16T06:54:57;7.78;;;1.50;;
55003;SDS011;40900;52.710;6.438;2022-09-16T06:57:23;9.10;;;2.15;;
55003;SDS011;40900;52.710;6.438;2022-09-16T06:59:49;8.75;;;1.90;;
55003;SDS011;40900;52.710;6.438;2022-09-16T07:02:15;9.45;;;1.70;;
55003;SDS011;40900;52.710;6.438;2022-09-16T07:04:41;9.70;;;1.83;;
55003;SDS011;40900;52.710;6.438;2022-09-16T07:07:08;12.48;;;2.10;;
55003;SDS011;40900;52.710;6.438;2022-09-16T07:09:34;11.25;;;2.00;;
55003;SDS011;40900;52.710;6.438;2022-09-16T07:12:00;7.80;;;2.72;;
55003;SDS011;40900;52.710;6.438;2022-09-16T07:14:26;12.60;;;1.83;;
55003;SDS011;40900;52.710;6.438;2022-09-16T07:16:52;8.77;;;1.60;;
55003;SDS011;40900;52.710;6.438;2022-09-16T07:19:18;8.48;;;2.20;;
55003;SDS011;40900;52.710;6.438;2022-09-16T07:21:44;9.98;;;1.83;;
55003;SDS011;40900;52.710;6.438;2022-09-16T07:24:11;7.63;;;1.88;;
55003;SDS011;40900;52.710;6.438;2022-09-16T07:26:38;8.63;;;2.25;;
55003;SDS011;40900;52.710;6.438;2022-09-16T07:29:05;6.07;;;1.83;;
55003;SDS011;40900;52.710;6.438;2022-09-16T07:31:34;8.50;;;1.98;;
55003;SDS011;40900;52.710;6.438;2022-09-16T07:34:01;8.13;;;1.80;;
55003;SDS011;40900;52.710;6.438;2022-09-16T07:36:29;7.15;;;1.50;;
55003;SDS011;40900;52.710;6.438;2022-09-16T07:38:59;8.68;;;1.70;;
55003;SDS011;40900;52.710;6.438;2022-09-16T07:41:27;6.85;;;2.10;;
55003;SDS011;40900;52.710;6.438;2022-09-16T07:43:54;11.07;;;2.22;;
55003;SDS011;40900;52.710;6.438;2022-09-16T07:46:23;6.35;;;1.65;;
55003;SDS011;40900;52.710;6.438;2022-09-16T07:48:50;9.57;;;2.33;;
55003;SDS011;40900;52.710;6.438;2022-09-16T07:51:20;6.93;;;1.70;;
55003;SDS011;40900;52.710;6.438;2022-09-16T07:53:47;10.85;;;2.00;;
55003;SDS011;40900;52.710;6.438;2022-09-16T07:56:18;9.13;;;2.03;;
55003;SDS011;40900;52.710;6.438;2022-09-16T07:58:46;6.85;;;2.17;;
55003;SDS011;40900;52.710;6.438;2022-09-16T08:01:12;6.22;;;1.77;;
55003;SDS011;40900;52.710;6.438;2022-09-16T08:03:40;5.60;;;1.95;;
55003;SDS011;40900;52.710;6.438;2022-09-16T08:06:08;5.93;;;1.77;;
55003;SDS011;40900;52.710;6.438;2022-09-16T08:08:35;8.35;;;2.10;;
55003;SDS011;40900;52.710;6.438;2022-09-16T08:11:01;8.85;;;1.75;;
55003;SDS011;40900;52.710;6.438;2022-09-16T08:13:29;7.90;;;2.00;;
55003;SDS011;40900;52.710;6.438;2022-09-16T08:16:00;6.75;;;1.63;;
55003;SDS011;40900;52.710;6.438;2022-09-16T08:18:28;8.13;;;2.00;;
55003;SDS011;40900;52.710;6.438;2022-09-16T08:20:54;6.30;;;1.77;;
55003;SDS011;40900;52.710;6.438;2022-09-16T08:23:20;8.18;;;2.20;;
55003;SDS011;40900;52.710;6.438;2022-09-16T08:25:45;8.27;;;1.45;;
55003;SDS011;40900;52.710;6.438;2022-09-16T08:28:12;5.88;;;1.63;;
55003;SDS011;40900;52.710;6.438;2022-09-16T08:30:39;9.75;;;2.53;;
55003;SDS011;40900;52.710;6.438;2022-09-16T08:33:05;11.20;;;1.95;;
55003;SDS011;40900;52.710;6.438;2022-09-16T08:35:31;9.18;;;2.00;;
55003;SDS011;40900;52.710;6.438;2022-09-16T08:37:58;6.13;;;1.52;;
55003;SDS011;40900;52.710;6.438;2022-09-16T08:40:24;5.18;;;1.67;;
55003;SDS011;40900;52.710;6.438;2022-09-16T08:50:59;8.85;;;2.08;;
55003;SDS011;40900;52.710;6.438;2022-09-16T08:55:55;9.07;;;1.95;;
55003;SDS011;40900;52.710;6.438;2022-09-16T08:58:26;10.27;;;2.30;;
55003;SDS011;40900;52.710;6.438;2022-09-16T09:03:46;8.27;;;2.10;;
55003;SDS011;40900;52.710;6.438;2022-09-16T09:11:46;9.35;;;2.17;;
55003;SDS011;40900;52.710;6.438;2022-09-16T09:14:28;11.30;;;2.28;;
55003;SDS011;40900;52.710;6.438;2022-09-16T09:25:38;14.60;;;2.65;;
55003;SDS011;40900;52.710;6.438;2022-09-16T09:42:44;11.32;;;3.00;;
55003;SDS011;40900;52.710;6.438;2022-09-16T09:45:18;7.20;;;2.15;;
55003;SDS011;40900;52.710;6.438;2022-09-16T09:47:57;7.20;;;2.05;;
55003;SDS011;40900;52.710;6.438;2022-09-16T09:50:40;6.85;;;2.30;;
55003;SDS011;40900;52.710;6.438;2022-09-16T09:55:51;10.70;;;2.80;;
55003;SDS011;40900;52.710;6.438;2022-09-16T09:58:33;14.50;;;2.25;;
55003;SDS011;40900;52.710;6.438;2022-09-16T10:01:04;9.20;;;2.65;;
55003;SDS011;40900;52.710;6.438;2022-09-16T10:03:30;11.77;;;2.38;;
55003;SDS011;40900;52.710;6.438;2022-09-16T10:05:56;11.13;;;2.08;;
55003;SDS011;40900;52.710;6.438;2022-09-16T10:08:40;14.98;;;2.40;;
55003;SDS011;40900;52.710;6.438;2022-09-16T10:11:17;7.05;;;1.85;;
55003;SDS011;40900;52.710;6.438;2022-09-16T10:13:57;7.45;;;2.33;;
55003;SDS011;40900;52.710;6.438;2022-09-16T10:16:28;18.20;;;3.15;;
55003;SDS011;40900;52.710;6.438;2022-09-16T10:19:01;9.30;;;2.25;;
55003;SDS011;40900;52.710;6.438;2022-09-16T10:21:42;11.68;;;1.92;;
55003;SDS011;40900;52.710;6.438;2022-09-16T10:24:26;11.10;;;2.20;;
55003;SDS011;40900;52.710;6.438;2022-09-16T10:26:52;10.23;;;2.35;;
55003;SDS011;40900;52.710;6.438;2022-09-16T10:29:17;6.90;;;2.17;;
55003;SDS011;40900;52.710;6.438;2022-09-16T10:31:43;9.80;;;2.58;;
55003;SDS011;40900;52.710;6.438;2022-09-16T10:34:25;9.80;;;2.42;;
55003;SDS011;40900;52.710;6.438;2022-09-16T10:36:58;12.68;;;3.22;;
55003;SDS011;40900;52.710;6.438;2022-09-16T10:39:37;7.80;;;1.85;;
55003;SDS011;40900;52.710;6.438;2022-09-16T10:42:20;7.40;;;1.88;;
55003;SDS011;40900;52.710;6.438;2022-09-16T10:44:46;16.23;;;2.70;;
55003;SDS011;40900;52.710;6.438;2022-09-16T10:47:24;10.40;;;2.25;;
55003;SDS011;40900;52.710;6.438;2022-09-16T10:49:56;7.53;;;2.20;;
55003;SDS011;40900;52.710;6.438;2022-09-16T10:52:31;8.85;;;2.42;;
55003;SDS011;40900;52.710;6.438;2022-09-16T10:55:16;7.07;;;2.63;;
55003;SDS011;40900;52.710;6.438;2022-09-16T11:00:55;8.55;;;2.38;;
55003;SDS011;40900;52.710;6.438;2022-09-16T11:03:31;8.30;;;2.35;;
55003;SDS011;40900;52.710;6.438;2022-09-16T11:21:06;9.57;;;2.13;;
55003;SDS011;40900;52.710;6.438;2022-09-16T11:26:44;11.23;;;2.45;;
55003;SDS011;40900;52.710;6.438;2022-09-16T11:40:45;8.52;;;2.40;;
55003;SDS011;40900;52.710;6.438;2022-09-16T11:45:50;6.65;;;1.98;;
55003;SDS011;40900;52.710;6.438;2022-09-16T11:48:33;7.85;;;2.35;;
55003;SDS011;40900;52.710;6.438;2022-09-16T11:56:30;11.68;;;2.33;;
55003;SDS011;40900;52.710;6.438;2022-09-16T11:59:01;10.70;;;2.30;;
55003;SDS011;40900;52.710;6.438;2022-09-16T12:01:43;8.48;;;2.35;;
55003;SDS011;40900;52.710;6.438;2022-09-16T12:04:19;9.63;;;2.28;;
55003;SDS011;40900;52.710;6.438;2022-09-16T12:07:12;6.50;;;2.22;;
55003;SDS011;40900;52.710;6.438;2022-09-16T12:09:42;7.90;;;1.73;;
55003;SDS011;40900;52.710;6.438;2022-09-16T12:12:18;9.05;;;1.92;;
55003;SDS011;40900;52.710;6.438;2022-09-16T12:14:56;5.63;;;1.90;;
55003;SDS011;40900;52.710;6.438;2022-09-16T12:17:32;7.90;;;2.20;;
55003;SDS011;40900;52.710;6.438;2022-09-16T12:20:05;11.68;;;2.05;;
55003;SDS011;40900;52.710;6.438;2022-09-16T12:25:44;5.60;;;1.38;;
55003;SDS011;40900;52.710;6.438;2022-09-16T12:28:39;4.65;;;1.48;;
55003;SDS011;40900;52.710;6.438;2022-09-16T12:34:03;4.90;;;1.33;;
55003;SDS011;40900;52.710;6.438;2022-09-16T12:36:35;5.63;;;1.40;;
55003;SDS011;40900;52.710;6.438;2022-09-16T12:39:03;4.75;;;1.30;;
55003;SDS011;40900;52.710;6.438;2022-09-16T12:47:39;10.07;;;1.77;;
55003;SDS011;40900;52.710;6.438;2022-09-16T12:50:24;7.65;;;1.88;;
55003;SDS011;40900;52.710;6.438;2022-09-16T13:03:36;8.93;;;1.77;;
55003;SDS011;40900;52.710;6.438;2022-09-16T13:06:06;9.07;;;1.88;;
55003;SDS011;40900;52.710;6.438;2022-09-16T13:11:56;7.35;;;1.60;;
55003;SDS011;40900;52.710;6.438;2022-09-16T13:14:35;7.22;;;1.83;;
55003;SDS011;40900;52.710;6.438;2022-09-16T13:17:08;5.70;;;1.98;;
55003;SDS011;40900;52.710;6.438;2022-09-16T13:19:51;13.07;;;2.00;;
55003;SDS011;40900;52.710;6.438;2022-09-16T13:22:29;11.48;;;2.53;;
55003;SDS011;40900;52.710;6.438;2022-09-16T13:25:21;10.98;;;2.40;;
55003;SDS011;40900;52.710;6.438;2022-09-16T13:27:58;11.02;;;2.88;;
55003;SDS011;40900;52.710;6.438;2022-09-16T13:37:47;11.57;;;2.40;;
55003;SDS011;40900;52.710;6.438;2022-09-16T13:40:20;11.40;;;3.92;;
55003;SDS011;40900;52.710;6.438;2022-09-16T13:43:54;15.80;;;3.13;;
55003;SDS011;40900;52.710;6.438;2022-09-16T13:46:03;11.13;;;2.15;;
55003;SDS011;40900;52.710;6.438;2022-09-16T13:48:33;11.02;;;2.25;;
55003;SDS011;40900;52.710;6.438;2022-09-16T13:51:19;10.68;;;2.78;;
55003;SDS011;40900;52.710;6.438;2022-09-16T14:08:16;9.32;;;2.40;;
55003;SDS011;40900;52.710;6.438;2022-09-16T14:13:46;9.27;;;2.35;;
55003;SDS011;40900;52.710;6.438;2022-09-16T14:16:22;13.07;;;2.80;;
55003;SDS011;40900;52.710;6.438;2022-09-16T14:21:41;8.10;;;2.63;;
55003;SDS011;40900;52.710;6.438;2022-09-16T14:24:17;14.45;;;3.05;;
55003;SDS011;40900;52.710;6.438;2022-09-16T14:26:50;13.45;;;3.00;;
55003;SDS011;40900;52.710;6.438;2022-09-16T14:29:16;15.80;;;2.85;;
55003;SDS011;40900;52.710;6.438;2022-09-16T14:31:42;13.43;;;2.55;;
55003;SDS011;40900;52.710;6.438;2022-09-16T14:34:09;10.25;;;2.60;;
55003;SDS011;40900;52.710;6.438;2022-09-16T14:36:40;11.18;;;3.22;;
55003;SDS011;40900;52.710;6.438;2022-09-16T14:39:13;11.13;;;2.70;;
55003;SDS011;40900;52.710;6.438;2022-09-16T14:41:46;17.92;;;3.80;;
55003;SDS011;40900;52.710;6.438;2022-09-16T14:49:26;13.70;;;3.10;;
55003;SDS011;40900;52.710;6.438;2022-09-16T14:51:58;16.58;;;2.97;;
55003;SDS011;40900;52.710;6.438;2022-09-16T14:54:28;14.52;;;2.85;;
55003;SDS011;40900;52.710;6.438;2022-09-16T14:56:55;13.60;;;2.63;;
55003;SDS011;40900;52.710;6.438;2022-09-16T14:59:27;14.85;;;2.78;;
55003;SDS011;40900;52.710;6.438;2022-09-16T15:02:15;17.38;;;3.38;;
55003;SDS011;40900;52.710;6.438;2022-09-16T15:04:43;15.25;;;3.17;;
55003;SDS011;40900;52.710;6.438;2022-09-16T15:07:15;15.68;;;2.75;;
55003;SDS011;40900;52.710;6.438;2022-09-16T15:15:01;12.35;;;2.83;;
55003;SDS011;40900;52.710;6.438;2022-09-16T15:17:29;13.98;;;2.88;;
55003;SDS011;40900;52.710;6.438;2022-09-16T15:19:56;11.25;;;2.55;;
55003;SDS011;40900;52.710;6.438;2022-09-16T15:22:23;15.07;;;2.92;;
55003;SDS011;40900;52.710;6.438;2022-09-16T15:24:52;12.98;;;2.47;;
55003;SDS011;40900;52.710;6.438;2022-09-16T15:27:23;11.80;;;2.60;;
55003;SDS011;40900;52.710;6.438;2022-09-16T15:29:52;14.63;;;3.03;;
55003;SDS011;40900;52.710;6.438;2022-09-16T15:32:22;17.08;;;3.13;;
55003;SDS011;40900;52.710;6.438;2022-09-16T15:37:34;16.45;;;3.13;;
55003;SDS011;40900;52.710;6.438;2022-09-16T15:45:40;14.95;;;3.08;;
55003;SDS011;40900;52.710;6.438;2022-09-16T15:48:17;16.33;;;3.65;;
55003;SDS011;40900;52.710;6.438;2022-09-16T15:53:21;17.52;;;3.13;;
55003;SDS011;40900;52.710;6.438;2022-09-16T15:58:38;13.68;;;2.70;;
55003;SDS011;40900;52.710;6.438;2022-09-16T16:04:12;11.30;;;2.80;;
55003;SDS011;40900;52.710;6.438;2022-09-16T16:06:55;12.45;;;2.45;;
55003;SDS011;40900;52.710;6.438;2022-09-16T16:11:54;10.85;;;2.78;;
55003;SDS011;40900;52.710;6.438;2022-09-16T16:14:25;13.23;;;2.58;;
55003;SDS011;40900;52.710;6.438;2022-09-16T16:16:56;14.65;;;2.65;;
55003;SDS011;40900;52.710;6.438;2022-09-16T16:19:27;12.55;;;2.42;;
55003;SDS011;40900;52.710;6.438;2022-09-16T16:21:54;11.95;;;2.40;;
55003;SDS011;40900;52.710;6.438;2022-09-16T16:24:22;9.68;;;1.90;;
55003;SDS011;40900;52.710;6.438;2022-09-16T16:26:50;11.90;;;2.10;;
55003;SDS011;40900;52.710;6.438;2022-09-16T16:29:16;10.45;;;2.20;;
55003;SDS011;40900;52.710;6.438;2022-09-16T16:31:58;12.57;;;2.28;;
55003;SDS011;40900;52.710;6.438;2022-09-16T16:34:24;12.00;;;2.42;;
55003;SDS011;40900;52.710;6.438;2022-09-16T16:36:50;10.73;;;2.45;;
55003;SDS011;40900;52.710;6.438;2022-09-16T16:39:16;7.70;;;1.83;;
55003;SDS011;40900;52.710;6.438;2022-09-16T16:41:42;7.75;;;1.80;;
55003;SDS011;40900;52.710;6.438;2022-09-16T16:44:07;10.02;;;1.90;;
55003;SDS011;40900;52.710;6.438;2022-09-16T16:46:33;8.32;;;1.80;;
55003;SDS011;40900;52.710;6.438;2022-09-16T16:48:58;6.88;;;1.65;;
55003;SDS011;40900;52.710;6.438;2022-09-16T16:51:24;8.77;;;1.98;;
55003;SDS011;40900;52.710;6.438;2022-09-16T16:53:50;8.50;;;1.60;;
55003;SDS011;40900;52.710;6.438;2022-09-16T16:56:17;8.43;;;1.80;;
55003;SDS011;40900;52.710;6.438;2022-09-16T16:58:42;7.15;;;1.63;;
55003;SDS011;40900;52.710;6.438;2022-09-16T17:01:12;4.75;;;1.35;;
55003;SDS011;40900;52.710;6.438;2022-09-16T17:03:43;4.80;;;1.40;;
55003;SDS011;40900;52.710;6.438;2022-09-16T17:06:10;4.65;;;1.42;;
55003;SDS011;40900;52.710;6.438;2022-09-16T17:08:36;5.30;;;1.27;;
55003;SDS011;40900;52.710;6.438;2022-09-16T17:11:08;6.70;;;1.50;;
55003;SDS011;40900;52.710;6.438;2022-09-16T17:13:37;3.42;;;1.20;;
55003;SDS011;40900;52.710;6.438;2022-09-16T17:16:05;3.15;;;1.00;;
55003;SDS011;40900;52.710;6.438;2022-09-16T17:18:33;3.30;;;1.05;;
55003;SDS011;40900;52.710;6.438;2022-09-16T17:21:04;6.38;;;1.38;;
55003;SDS011;40900;52.710;6.438;2022-09-16T17:23:31;4.35;;;1.13;;
55003;SDS011;40900;52.710;6.438;2022-09-16T17:25:57;5.00;;;1.00;;
55003;SDS011;40900;52.710;6.438;2022-09-16T17:28:23;3.58;;;1.10;;
55003;SDS011;40900;52.710;6.438;2022-09-16T17:30:49;4.55;;;1.25;;
55003;SDS011;40900;52.710;6.438;2022-09-16T17:33:15;5.28;;;1.30;;
55003;SDS011;40900;52.710;6.438;2022-09-16T17:35:41;7.35;;;1.27;;
55003;SDS011;40900;52.710;6.438;2022-09-16T17:38:07;5.03;;;1.52;;
55003;SDS011;40900;52.710;6.438;2022-09-16T17:40:33;7.07;;;1.50;;
55003;SDS011;40900;52.710;6.438;2022-09-16T17:42:59;6.25;;;1.30;;
55003;SDS011;40900;52.710;6.438;2022-09-16T17:45:25;8.40;;;1.88;;
55003;SDS011;40900;52.710;6.438;2022-09-16T17:47:50;6.72;;;1.63;;
55003;SDS011;40900;52.710;6.438;2022-09-16T17:50:16;11.00;;;2.08;;
55003;SDS011;40900;52.710;6.438;2022-09-16T17:52:42;14.32;;;2.25;;
55003;SDS011;40900;52.710;6.438;2022-09-16T17:55:09;8.43;;;2.15;;
55003;SDS011;40900;52.710;6.438;2022-09-16T17:57:35;7.07;;;1.70;;
55003;SDS011;40900;52.710;6.438;2022-09-16T18:00:02;8.18;;;2.00;;
55003;SDS011;40900;52.710;6.438;2022-09-16T18:02:28;8.50;;;2.05;;
55003;SDS011;40900;52.710;6.438;2022-09-16T18:04:54;6.88;;;1.90;;
55003;SDS011;40900;52.710;6.438;2022-09-16T18:07:20;8.32;;;1.90;;
55003;SDS011;40900;52.710;6.438;2022-09-16T18:09:45;8.25;;;2.25;;
55003;SDS011;40900;52.710;6.438;2022-09-16T18:12:11;8.73;;;1.83;;
55003;SDS011;40900;52.710;6.438;2022-09-16T18:14:37;7.38;;;1.90;;
55003;SDS011;40900;52.710;6.438;2022-09-16T18:17:03;7.68;;;1.70;;
55003;SDS011;40900;52.710;6.438;2022-09-16T18:19:29;7.60;;;1.77;;
55003;SDS011;40900;52.710;6.438;2022-09-16T18:21:54;9.27;;;2.22;;
55003;SDS011;40900;52.710;6.438;2022-09-16T18:24:20;10.07;;;1.85;;
55003;SDS011;40900;52.710;6.438;2022-09-16T18:26:46;9.55;;;1.88;;
55003;SDS011;40900;52.710;6.438;2022-09-16T18:29:12;6.85;;;1.85;;
55003;SDS011;40900;52.710;6.438;2022-09-16T18:31:39;9.13;;;1.67;;
55003;SDS011;40900;52.710;6.438;2022-09-16T18:34:07;8.88;;;1.77;;